• Join FlightAware (Why Join?)
  • Login
  • US Flag 
05:09PM EDT


 

Airport Tracker/Info


-or-


 

Live Flight TrackerFlight Track Log ✈ NKS212 ✈ 27-Jun-2014 ✈ TIST / STT - KFLL

Flight Track Log - Related Links

Times and Time Zones

All times are in EDT time to prevent confusion due to time zone crossing. See the NKS212 flight status page for this flight to view local times or setup timezone preferences in your user account.

Time Position Orientation Groundspeed Altitude Reporting Facility
EDT Latitude Longitude Course Direction KTS MPH feet Rate Location/Type
04:30PM 18.2932 -65.2376 290° West 307 353 9,500  Level FlightAware ADS-B (TNCM / SXM)
04:31PM 18.3135 -65.3326 281° West 356 410 11,500 1,920 Climbing FlightAware ADS-B (TNCM / SXM)
04:31PM 18.3243 -65.3829 291° West 374 430 12,400 2,220 Climbing FlightAware ADS-B (TNCM / SXM)
04:31PM 18.3337 -65.4000 303° West 371 427 13,000 2,700 Climbing FlightAware ADS-B (TNCM / SXM)
04:32PM 18.3676 -65.4438 310° West 376 433 14,300 2,280 Climbing FlightAware ADS-B (TNCM / SXM)
04:32PM 18.3889 -65.4715 309° West 382 440 15,000 2,160 Climbing FlightAware ADS-B (TNCM / SXM)
04:34PM 18.5175 -65.6507 307° West 405 466 19,200 2,100 Climbing FlightAware ADS-B (TNCM / SXM)
04:35PM 18.5462 -65.6914 307° West 413 475 20,100 1,800 Climbing FlightAware ADS-B (TNCM / SXM)
04:36PM 18.6764 -65.8753 307° West 413 475 23,500 1,800 Climbing FlightAware ADS-B (TNCM / SXM)
04:37PM 18.7199 -65.9365 307° West 433 498 24,500 1,500 Climbing FlightAware ADS-B (TNCM / SXM)
04:38PM 18.7733 -66.0116 307° West 434 499 25,500 1,500 Climbing FlightAware ADS-B (TNCM / SXM)
04:38PM 18.8070 -66.0591 307° West 442 509 26,300 1,440 Climbing FlightAware ADS-B (TNCM / SXM)
04:39PM 18.8833 -66.1667 307° West 440 506 27,900 1,380 Climbing San Juan Center
04:40PM 18.9500 -66.2667 305° West 450 518 29,300 1,200 Climbing San Juan Center
04:41PM 19.0333 -66.3833 307° West 460 529 30,400 1,200 Climbing San Juan Center
04:42PM 19.1000 -66.4833 305° West 460 529 31,700 1,500 Climbing San Juan Center
04:43PM 19.1833 -66.6000 307° West 440 506 33,400 1,500 Climbing San Juan Center
04:44PM 19.2500 -66.7000 305° West 450 518 34,700 1,080 Climbing San Juan Center
04:45PM 19.3333 -66.8000 311° West 450 518 35,600 900 Climbing San Juan Center
04:46PM 19.4000 -66.9167 301° West 450 518 36,600 1,200 Climbing San Juan Center
04:47PM 19.4833 -67.0167 311° West 440 506 38,000 660 Climbing San Juan Center
04:48PM 19.5500 -67.1167 305° West 440 506 38,000  Level San Juan Center
04:49PM 19.6167 -67.2167 305° West 430 495 38,000  Level San Juan Center
04:50PM 19.7000 -67.3167 312° West 440 506 38,000  Level San Juan Center
04:51PM 19.7667 -67.4333 301° West 430 495 38,000  Level San Juan Center
04:52PM 19.8333 -67.5333 305° West 430 495 38,000  Level San Juan Center
04:53PM 19.9167 -67.6333 312° West 430 495 38,000  Level San Juan Center
04:54PM 19.9833 -67.7333 305° West 430 495 38,000  Level San Juan Center
04:57PM 20.1547 -67.9767 307° West 431 496 38,000  Level Miami Center
04:58PM 20.2247 -68.0814 305° West 431 496 38,000  Level Miami Center
04:59PM 20.3089 -68.2072 306° West 431 496 38,000  Level Miami Center
05:00PM 20.3717 -68.3172 301° West 432 497 38,000  Level Miami Center
05:01PM 20.4333 -68.4289 301° West 433 498 38,000  Level Miami Center
05:02PM 20.4961 -68.5386 301° West 433 498 38,000  Level Miami Center
05:03PM 20.5589 -68.6486 301° West 433 498 38,000  Level Miami Center
05:04PM 20.6211 -68.7589 301° West 433 498 38,000  Level Miami Center
05:05PM 20.6847 -68.8692 302° West 433 498 38,000  Level Miami Center
05:06PM 20.7600 -69.0019 301° West 433 498 38,000  Level Miami Center
05:07PM 20.8231 -69.1133 301° West 434 499 38,000  Level Miami Center
05:08PM 20.8869 -69.2250 301° West 435 501 38,000  Level Miami Center
05:09PM 20.9500 -69.3369 301° West 435 501 38,000  Level Miami Center
05:10PM 21.0139 -69.4478 302° West 436 502 38,000  Level Miami Center
05:11PM 21.0769 -69.5594 301° West 436 502 38,000  Level Miami Center
05:12PM 21.1531 -69.6942 301° West 437 503 38,000  Level Miami Center
05:13PM 21.2169 -69.8083 301° West 440 506 38,000  Level Miami Center
05:14PM 21.2797 -69.9219 301° West 440 506 38,000  Level Miami Center
05:15PM 21.3436 -70.0344 301° West 441 507 38,000  Level Miami Center
05:16PM 21.4067 -70.1478 301° West 441 507 38,000  Level Miami Center
05:17PM 21.4825 -70.2842 301° West 441 507 38,000  Level Miami Center
05:18PM 21.5461 -70.3981 301° West 441 507 38,000  Level Miami Center
05:19PM 21.6100 -70.5111 301° West 442 509 38,000  Level Miami Center
05:20PM 21.6731 -70.6264 300° West 444 511 38,000  Level Miami Center
05:21PM 21.7369 -70.7411 301° West 446 513 38,000  Level Miami Center
05:23PM 21.8772 -70.9936 300° West 446 513 38,000  Level Miami Center
05:24PM 21.9403 -71.1086 301° West 447 514 38,000  Level Miami Center
05:26PM 22.0031 -71.2244 300° West 447 514 38,000  Level Miami Center
05:27PM 22.0669 -71.3397 301° West 447 514 38,000  Level Miami Center
05:28PM 22.1297 -71.4533 301° West 447 514 38,000  Level Miami Center
05:29PM 22.2039 -71.5911 300° West 447 514 38,000  Level Miami Center
05:30PM 22.2664 -71.7056 301° West 446 513 38,000  Level Miami Center
05:31PM 22.3286 -71.8206 300° West 446 513 38,000  Level Miami Center
05:32PM 22.3919 -71.9358 301° West 446 513 38,000  Level Miami Center
05:33PM 22.4539 -72.0514 300° West 446 513 38,000  Level Miami Center
05:34PM 22.5164 -72.1672 300° West 446 513 38,000  Level Miami Center
05:35PM 22.5911 -72.3056 300° West 446 513 38,000  Level Miami Center
05:36PM 22.6531 -72.4217 300° West 445 512 38,000  Level Miami Center
05:37PM 22.7153 -72.5367 300° West 445 512 38,000  Level Miami Center
05:38PM 22.7753 -72.6525 299° West 444 511 38,000  Level Miami Center
05:39PM 22.8372 -72.7683 300° West 444 511 38,000  Level Miami Center
05:40PM 22.9008 -72.8831 301° West 444 511 38,000  Level Miami Center
05:41PM 22.9736 -73.0211 300° West 443 510 38,000  Level Miami Center
05:42PM 23.0319 -73.1317 300° West 443 510 38,000  Level Miami Center
05:43PM 23.0939 -73.2483 300° West 443 510 38,000  Level Miami Center
05:44PM 23.1567 -73.3658 300° West 444 511 38,100  Climbing Miami Center
05:45PM 23.2294 -73.5056 300° West 444 511 38,000 -60 Descending Miami Center
05:46PM 23.2906 -73.6208 300° West 444 511 38,000  Level Miami Center
05:47PM 23.3508 -73.7361 300° West 443 510 38,000  Level Miami Center
05:48PM 23.4108 -73.8508 300° West 441 507 38,000  Level Miami Center
05:49PM 23.4364 -73.9811 282° West 439 505 38,000  Level Miami Center
05:50PM 23.4336 -74.1164 269° West 443 510 38,000 -300 Level Miami Center
05:51PM 23.4328 -74.2769 270° West 443 510 37,400 -780 Descending Miami Center
05:52PM 23.4308 -74.4122 269° West 443 510 36,400 -720 Descending Miami Center
05:53PM 23.4314 -74.5503 270° West 449 517 36,000 -240 Descending Miami Center
05:54PM 23.4328 -74.6878 271° West 454 522 36,000  Level Miami Center
05:56PM 23.4342 -74.8247 271° West 454 522 36,000  Level Miami Center
05:57PM 23.4372 -74.9597 271° West 452 520 36,000  Level Miami Center
05:58PM 23.4400 -75.0933 271° West 447 514 36,000  Level Miami Center
05:59PM 23.4453 -75.2539 272° West 445 512 36,000  Level Miami Center
06:00PM 23.4494 -75.3872 272° West 445 512 36,000  Level Miami Center
06:01PM 23.4539 -75.5211 272° West 445 512 36,000  Level Miami Center
06:02PM 23.4672 -75.6556 276° West 449 517 36,000  Level Miami Center
06:03PM 23.5114 -75.7761 292° West 449 517 36,000  Level Miami Center
06:04PM 23.5939 -75.9214 302° West 450 518 36,000  Level Miami Center
06:05PM 23.6528 -76.0406 298° West 448 516 36,000  Level Miami Center
06:06PM 23.7128 -76.1608 299° West 449 517 36,000  Level Miami Center
06:07PM 23.7750 -76.2825 299° West 452 520 36,000  Level Miami Center
06:08PM 23.8367 -76.4050 299° West 455 524 36,000  Level Miami Center
06:09PM 23.8983 -76.5283 299° West 460 529 36,000  Level Miami Center
06:11PM 24.1072 -76.7322 307° West 460 529 36,000  Level Miami Center
06:12PM 24.2092 -76.8175 323° Northwest 460 529 36,000  Level Miami Center
06:18PM 24.7271 -77.4057 313° West 462 532 36,100  Climbing FlightAware ADS-B (KMIA)
06:19PM 24.8008 -77.4911 313° West 460 529 36,000 -60 Descending FlightAware ADS-B (KMIA)
06:20PM 24.9346 -77.6449 313° West 457 526 36,000  Level FlightAware ADS-B (KMIA)
06:21PM 25.0285 -77.7629 305° West 457 526 36,000  Level FlightAware ADS-B (KMIA)
06:22PM 25.1156 -77.8921 307° West 457 526 36,000 -1,500 Level FlightAware ADS-B (KEYW)
06:26PM 25.3589 -78.2943 303° West 435 501 29,000 -2,040 Descending FlightAware ADS-B (KEYW)
06:26PM 25.3926 -78.3535 303° West 433 498 28,000 -1,980 Descending FlightAware ADS-B (KEYW)
06:27PM 25.4223 -78.4124 298° West 414 476 27,000 -1,800 Descending FlightAware ADS-B (KEYW)
06:29PM 25.5418 -78.6953 290° West 413 475 22,700 -1,980 Descending FlightAware ADS-B (KEYW)
06:31PM 25.5814 -78.8156 290° West 413 475 20,000 -2,280 Descending Miami Center
06:32PM 25.6214 -78.9336 291° West 413 475 17,800 -2,160 Descending Miami Center
06:33PM 25.6600 -79.0456 291° West 396 456 15,600 -2,100 Descending Miami Center
06:34PM 25.6939 -79.1531 289° West 381 438 13,500 -2,400 Descending Miami Center
06:35PM 25.7353 -79.2781 290° West 363 418 10,800 -2,460 Descending Miami Center
06:36PM 25.7683 -79.3803 290° West 356 410 8,500 -2,280 Descending Miami Center
06:36PM 25.7792 -79.4194 287° West 348 400 7,800 -1,620 Descending Miami Center
06:37PM 25.8008 -79.4786 292° West 341 392 7,000 -900 Descending Miami Center
06:38PM 25.8303 -79.5667 290° West 306 352 6,300 -540 Descending Miami Center
06:39PM 25.8547 -79.6417 290° West 264 304 5,900 -180 Descending Miami Center
06:40PM 25.8839 -79.7092 296° West 240 276 6,000  Climbing Miami Center
06:41PM 25.9153 -79.7808 296° West 240 276 6,000  Level Miami Center
06:42PM 25.9389 -79.8381 295° West 242 278 6,000 -120 Level Miami Center
06:42PM 25.9467 -79.8564 295° West 242 278 5,900  Descending Miami Center
06:43PM 25.9681 -79.9119 293° West 239 275 6,000  Climbing Miami Center
06:43PM 25.9750 -79.9231 305° West 242 278 5,900 -120 Descending Miami Center
06:44PM 26.0086 -79.9856 301° West 239 275 5,900  Level Miami Center
06:45PM 26.0381 -80.0356 303° West 230 265 6,000  Climbing Miami Center
06:45PM 26.0442 -80.0458 303° West 236 272 5,900  Descending Miami Center
06:46PM 26.0742 -80.0939 305° West 235 270 6,000  Climbing Miami Center
06:46PM 26.0803 -80.1061 299° West 236 272 5,900  Descending Miami Center
06:47PM 26.1158 -80.1667 303° West 239 275 6,000  Climbing Miami Center
06:47PM 26.1164 -80.1658 53° Northeast 236 272 5,900 -1,080 Descending Miami Center
06:48PM 26.1492 -80.2364 297° West 231 266 4,800 -1,020 Descending Miami Center
06:49PM 26.1550 -80.3089 275° West 228 262 4,000 -480 Descending Miami Center
06:50PM 26.1403 -80.3750 256° West 231 266 3,900 -180 Descending Miami Center
06:50PM 26.1372 -80.3789 229° Southwest 233 268 3,800 -600 Descending Miami Center
06:51PM 26.0928 -80.3644 164° South 191 220 3,300 -600 Descending Miami Center
06:51PM 26.0906 -80.3611 127° Southeast 198 228 3,200 -900 Descending Miami Center
06:52PM 26.0767 -80.3189 110° East 177 204 2,500 -900 Descending Miami Center
06:52PM 26.0781 -80.3094 81° East 176 203 2,300 -1,020 Descending Miami Center
06:53PM 26.0764 -80.2611 92° East 178 205 1,500 -900 Descending Miami Center
06:53PM 26.0778 -80.2544 77° East 177 204 1,400 -720 Descending Miami Center
06:54PM 26.0775 -80.2100 90° East 131 151 700 -900 Descending Miami Center
06:54PM 26.0772 -80.1994 92° East 147 169 500 28,620 Descending Miami Center
06:55PM 26.0761 -80.1611 92° East 127 146 36,000 34,860 Climbing Miami Center
06:57PM 26.0667 -80.1500 77° East  Level FlightAware Approximate